createdAt,value
2023-02-06T00:00:37.000Z,3769.0
2023-02-06T00:01:38.000Z,3740.0
2023-02-06T00:02:38.000Z,3684.0
2023-02-06T00:03:37.000Z,3656.0
2023-02-06T00:04:38.000Z,3571.0
2023-02-06T00:05:37.000Z,3550.0
2023-02-06T00:06:38.000Z,3628.0
2023-02-06T00:07:38.000Z,3748.0
2023-02-06T00:08:37.000Z,3765.0
2023-02-06T00:09:38.000Z,3824.0
2023-02-06T00:10:38.000Z,3847.0
2023-02-06T00:11:37.000Z,3794.0
2023-02-06T00:12:38.000Z,3751.0
2023-02-06T00:13:38.000Z,3674.0
2023-02-06T00:14:37.000Z,3635.0
2023-02-06T00:15:38.000Z,3456.0
2023-02-06T00:16:37.000Z,3252.0
2023-02-06T00:17:38.000Z,2360.0
2023-02-06T00:18:38.000Z,2722.0
2023-02-06T00:19:37.000Z,3099.0
2023-02-06T00:20:38.000Z,3742.0
2023-02-06T00:21:38.000Z,4177.0
2023-02-06T00:22:37.000Z,4508.0
2023-02-06T00:23:38.000Z,4845.0
2023-02-06T00:24:37.000Z,5236.0
2023-02-06T00:25:38.000Z,5195.0
2023-02-06T00:26:38.000Z,4916.0
2023-02-06T00:27:37.000Z,5086.0
2023-02-06T00:28:38.000Z,4857.0
2023-02-06T00:29:37.000Z,4748.0
2023-02-06T00:30:38.000Z,4295.0
2023-02-06T00:31:38.000Z,4022.0
2023-02-06T00:32:37.000Z,3594.0
2023-02-06T00:33:38.000Z,3428.0
2023-02-06T00:34:38.000Z,3426.0
2023-02-06T00:35:38.000Z,3288.0
2023-02-06T00:36:38.000Z,3226.0
2023-02-06T00:37:37.000Z,3277.0
2023-02-06T00:38:38.000Z,3322.0
2023-02-06T00:39:38.000Z,3347.0
2023-02-06T00:40:37.000Z,3523.0
2023-02-06T00:41:38.000Z,3753.0
2023-02-06T00:42:37.000Z,3825.0
2023-02-06T00:43:38.000Z,4020.0
2023-02-06T00:44:38.000Z,3921.0
2023-02-06T00:45:37.000Z,3808.0
2023-02-06T00:46:38.000Z,3914.0
2023-02-06T00:47:38.000Z,3790.0
2023-02-06T00:48:37.000Z,3757.0
2023-02-06T00:49:38.000Z,3527.0
2023-02-06T00:50:37.000Z,3500.0
2023-02-06T00:51:38.000Z,3564.0
2023-02-06T00:52:38.000Z,3546.0
2023-02-06T00:53:37.000Z,3590.0
2023-02-06T00:54:38.000Z,3444.0
2023-02-06T00:55:37.000Z,3573.0
2023-02-06T00:56:38.000Z,3538.0
2023-02-06T00:57:38.000Z,3525.0
2023-02-06T00:58:37.000Z,3666.0
2023-02-06T00:59:38.000Z,3795.0
2023-02-06T01:00:38.000Z,4115.0
2023-02-06T01:01:37.000Z,4315.0
2023-02-06T01:02:38.000Z,4304.0
2023-02-06T01:03:37.000Z,4350.0
2023-02-06T01:04:38.000Z,4412.0
2023-02-06T01:05:38.000Z,3949.0
2023-02-06T01:06:37.000Z,4039.0
2023-02-06T01:07:38.000Z,3831.0
2023-02-06T01:08:37.000Z,4017.0
2023-02-06T01:09:38.000Z,3974.0
2023-02-06T01:10:38.000Z,3822.0
2023-02-06T01:11:37.000Z,3902.0
2023-02-06T01:12:38.000Z,4142.0
2023-02-06T01:13:38.000Z,4235.0
2023-02-06T01:14:37.000Z,3905.0
2023-02-06T01:15:38.000Z,3759.0
2023-02-06T01:16:37.000Z,3653.0
2023-02-06T01:17:38.000Z,3608.0
2023-02-06T01:18:38.000Z,3669.0
2023-02-06T01:19:37.000Z,3679.0
2023-02-06T01:20:38.000Z,3868.0
2023-02-06T01:21:38.000Z,3901.0
2023-02-06T01:22:38.000Z,3862.0
2023-02-06T01:23:38.000Z,3703.0
2023-02-06T01:24:37.000Z,3527.0
2023-02-06T01:25:38.000Z,3241.0
2023-02-06T01:26:38.000Z,3100.0
2023-02-06T01:27:37.000Z,3205.0
2023-02-06T01:28:38.000Z,3207.0
2023-02-06T01:29:37.000Z,3337.0
2023-02-06T01:30:38.000Z,3414.0
2023-02-06T01:31:38.000Z,3588.0
2023-02-06T01:32:37.000Z,3690.0
2023-02-06T01:33:38.000Z,3624.0
2023-02-06T01:34:38.000Z,3555.0
2023-02-06T01:35:38.000Z,3446.0
2023-02-06T01:36:38.000Z,3275.0
2023-02-06T01:37:37.000Z,3297.0
2023-02-06T01:38:38.000Z,2827.0
2023-02-06T01:39:38.000Z,2200.0
2023-02-06T01:40:37.000Z,2400.0
2023-02-06T01:41:38.000Z,2641.0
2023-02-06T01:42:37.000Z,2728.0
2023-02-06T01:43:38.000Z,3020.0
2023-02-06T01:44:38.000Z,3221.0
2023-02-06T01:45:37.000Z,3177.0
2023-02-06T01:46:38.000Z,2926.0
2023-02-06T01:47:38.000Z,2464.0
2023-02-06T01:48:37.000Z,2496.0
2023-02-06T01:49:38.000Z,2540.0
2023-02-06T01:50:37.000Z,2492.0
2023-02-06T01:51:38.000Z,2525.0
2023-02-06T01:52:38.000Z,2686.0
2023-02-06T01:53:37.000Z,2811.0
2023-02-06T01:54:38.000Z,2904.0
2023-02-06T01:55:37.000Z,3176.0
2023-02-06T01:56:38.000Z,3339.0
2023-02-06T01:57:38.000Z,3327.0
2023-02-06T01:58:37.000Z,3221.0
2023-02-06T01:59:38.000Z,3056.0
2023-02-06T02:00:38.000Z,2900.0
2023-02-06T02:01:37.000Z,3084.0
2023-02-06T02:02:38.000Z,3103.0
2023-02-06T02:03:37.000Z,2883.0
2023-02-06T02:04:38.000Z,2756.0
2023-02-06T02:05:38.000Z,2714.0
2023-02-06T02:06:37.000Z,2875.0
2023-02-06T02:07:38.000Z,2815.0
2023-02-06T02:08:37.000Z,2862.0
2023-02-06T02:09:38.000Z,3033.0
2023-02-06T02:10:38.000Z,3195.0
2023-02-06T02:11:37.000Z,3057.0
2023-02-06T02:12:38.000Z,3035.0
2023-02-06T02:13:38.000Z,2890.0
2023-02-06T02:14:37.000Z,2919.0
2023-02-06T02:15:38.000Z,3061.0
2023-02-06T02:16:37.000Z,3053.0
2023-02-06T02:17:38.000Z,3126.0
2023-02-06T02:18:38.000Z,2943.0
2023-02-06T02:19:37.000Z,3065.0
2023-02-06T02:20:38.000Z,2939.0
2023-02-06T02:21:38.000Z,2789.0
2023-02-06T02:22:38.000Z,2595.0
2023-02-06T02:23:38.000Z,2573.0
2023-02-06T02:24:37.000Z,2631.0
2023-02-06T02:25:38.000Z,2486.0
2023-02-06T02:26:38.000Z,2485.0
2023-02-06T02:27:37.000Z,2403.0
2023-02-06T02:28:38.000Z,2347.0
2023-02-06T02:29:37.000Z,2377.0
2023-02-06T02:30:38.000Z,2445.0
2023-02-06T02:31:38.000Z,2494.0
2023-02-06T02:32:37.000Z,2708.0
2023-02-06T02:33:38.000Z,2764.0
2023-02-06T02:34:38.000Z,2803.0
2023-02-06T02:35:38.000Z,2658.0
2023-02-06T02:36:38.000Z,2516.0
2023-02-06T02:37:37.000Z,2336.0
2023-02-06T02:38:38.000Z,2338.0
2023-02-06T02:39:38.000Z,2251.0
2023-02-06T02:40:37.000Z,2202.0
2023-02-06T02:41:38.000Z,2214.0
2023-02-06T02:42:37.000Z,2227.0
2023-02-06T02:43:38.000Z,2447.0
2023-02-06T02:44:38.000Z,2418.0
2023-02-06T02:45:37.000Z,2607.0
2023-02-06T02:46:38.000Z,2559.0
2023-02-06T02:47:38.000Z,2492.0
2023-02-06T02:48:37.000Z,2474.0
2023-02-06T02:49:38.000Z,2519.0
2023-02-06T02:50:37.000Z,2569.0
2023-02-06T02:51:38.000Z,2672.0
2023-02-06T02:52:38.000Z,2767.0
2023-02-06T02:53:37.000Z,2615.0
2023-02-06T02:54:38.000Z,2319.0
2023-02-06T02:55:37.000Z,2081.0
2023-02-06T02:56:38.000Z,1991.0
2023-02-06T02:57:38.000Z,2019.0
2023-02-06T02:58:37.000Z,2141.0
2023-02-06T02:59:38.000Z,2338.0
2023-02-06T03:00:38.000Z,2474.0
2023-02-06T03:01:38.000Z,2568.0
2023-02-06T03:02:38.000Z,2629.0
2023-02-06T03:03:37.000Z,2808.0
2023-02-06T03:04:38.000Z,3024.0
2023-02-06T03:05:38.000Z,3126.0
2023-02-06T03:06:37.000Z,3185.0
2023-02-06T03:07:38.000Z,3215.0
2023-02-06T03:08:37.000Z,3195.0
2023-02-06T03:09:38.000Z,3087.0
2023-02-06T03:10:38.000Z,3018.0
2023-02-06T03:11:37.000Z,2992.0
2023-02-06T03:12:38.000Z,3028.0
2023-02-06T03:13:38.000Z,3047.0
2023-02-06T03:14:37.000Z,3064.0
2023-02-06T03:15:38.000Z,3073.0
2023-02-06T03:16:37.000Z,2929.0
2023-02-06T03:17:38.000Z,2499.0
2023-02-06T03:18:38.000Z,2171.0
2023-02-06T03:19:37.000Z,1644.0
2023-02-06T03:20:38.000Z,1636.0
2023-02-06T03:21:38.000Z,1885.0
2023-02-06T03:22:38.000Z,2224.0
2023-02-06T03:23:38.000Z,2434.0
2023-02-06T03:24:37.000Z,2630.0
2023-02-06T03:25:38.000Z,2901.0
2023-02-06T03:26:38.000Z,2824.0
2023-02-06T03:27:37.000Z,2982.0
2023-02-06T03:28:38.000Z,2928.0
2023-02-06T03:29:37.000Z,3193.0
2023-02-06T03:30:38.000Z,3443.0
2023-02-06T03:31:38.000Z,3410.0
2023-02-06T03:32:37.000Z,2791.0
2023-02-06T03:33:38.000Z,2133.0
2023-02-06T03:34:38.000Z,2238.0
2023-02-06T03:35:38.000Z,2372.0
2023-02-06T03:36:38.000Z,2392.0
2023-02-06T03:37:37.000Z,2402.0
2023-02-06T03:38:38.000Z,901.0
2023-02-06T03:39:38.000Z,400.0
2023-02-06T03:40:37.000Z,421.0
2023-02-06T03:41:38.000Z,727.0
2023-02-06T03:42:37.000Z,750.0
2023-02-06T03:43:38.000Z,769.0
2023-02-06T03:44:38.000Z,851.0
2023-02-06T03:45:37.000Z,852.0
2023-02-06T03:46:38.000Z,712.0
2023-02-06T03:47:38.000Z,525.0
2023-02-06T03:48:38.000Z,310.0
2023-02-06T03:49:38.000Z,303.0
2023-02-06T03:50:37.000Z,259.0
2023-02-06T03:51:38.000Z,269.0
2023-02-06T03:52:38.000Z,290.0
2023-02-06T03:53:37.000Z,312.0
2023-02-06T03:54:38.000Z,342.0
2023-02-06T03:55:37.000Z,398.0
2023-02-06T03:56:38.000Z,368.0
2023-02-06T03:57:38.000Z,376.0
2023-02-06T03:58:37.000Z,413.0
2023-02-06T03:59:38.000Z,572.0
2023-02-06T04:00:38.000Z,755.0
2023-02-06T04:01:38.000Z,757.0
2023-02-06T04:02:38.000Z,756.0
2023-02-06T04:03:37.000Z,575.0
2023-02-06T04:04:38.000Z,452.0
2023-02-06T04:05:38.000Z,469.0
2023-02-06T04:06:37.000Z,703.0
2023-02-06T04:07:38.000Z,1135.0
2023-02-06T04:08:38.000Z,1425.0
2023-02-06T04:09:38.000Z,1401.0
2023-02-06T04:10:38.000Z,1156.0
2023-02-06T04:11:37.000Z,763.0
2023-02-06T04:12:38.000Z,1049.0
2023-02-06T04:13:38.000Z,995.0
2023-02-06T04:14:37.000Z,1077.0
2023-02-06T04:15:38.000Z,1317.0
2023-02-06T04:16:37.000Z,1403.0
2023-02-06T04:17:38.000Z,1821.0
2023-02-06T04:18:38.000Z,2150.0
2023-02-06T04:19:37.000Z,2224.0
2023-02-06T04:20:38.000Z,1298.0
2023-02-06T04:21:38.000Z,1051.0
2023-02-06T04:22:38.000Z,1310.0
2023-02-06T04:23:38.000Z,1161.0
2023-02-06T04:24:37.000Z,1029.0
2023-02-06T04:25:38.000Z,1022.0
2023-02-06T04:26:38.000Z,891.0
2023-02-06T04:27:37.000Z,761.0
2023-02-06T04:28:38.000Z,639.0
2023-02-06T04:29:38.000Z,682.0
2023-02-06T04:30:38.000Z,833.0
2023-02-06T04:31:38.000Z,939.0
2023-02-06T04:32:37.000Z,1032.0
2023-02-06T04:33:38.000Z,1159.0
2023-02-06T04:34:38.000Z,1225.0
2023-02-06T04:35:37.000Z,1307.0
2023-02-06T04:36:38.000Z,1504.0
2023-02-06T04:37:37.000Z,1586.0
2023-02-06T04:38:38.000Z,1749.0
2023-02-06T04:39:38.000Z,1622.0
2023-02-06T04:40:37.000Z,1868.0
2023-02-06T04:41:38.000Z,2041.0
2023-02-06T04:42:37.000Z,2154.0
2023-02-06T04:43:38.000Z,1997.0
2023-02-06T04:44:38.000Z,2066.0
2023-02-06T04:45:37.000Z,1670.0
2023-02-06T04:46:38.000Z,1454.0
2023-02-06T04:47:38.000Z,1577.0
2023-02-06T04:48:37.000Z,1515.0
2023-02-06T04:49:38.000Z,1316.0
2023-02-06T04:50:37.000Z,1063.0
2023-02-06T04:51:38.000Z,967.0
2023-02-06T04:52:38.000Z,806.0
2023-02-06T04:53:37.000Z,693.0
2023-02-06T04:54:38.000Z,535.0
2023-02-06T04:55:38.000Z,514.0
2023-02-06T04:56:38.000Z,322.0
2023-02-06T04:57:38.000Z,364.0
2023-02-06T04:58:37.000Z,291.0
2023-02-06T04:59:38.000Z,310.0
2023-02-06T05:00:38.000Z,307.0
2023-02-06T05:01:37.000Z,263.0
2023-02-06T05:02:38.000Z,254.0
2023-02-06T05:03:37.000Z,273.0
2023-02-06T05:04:38.000Z,305.0
2023-02-06T05:05:38.000Z,296.0
2023-02-06T05:06:37.000Z,398.0
2023-02-06T05:07:38.000Z,461.0
2023-02-06T05:08:38.000Z,439.0
2023-02-06T05:09:38.000Z,348.0
2023-02-06T05:10:38.000Z,305.0
2023-02-06T05:11:37.000Z,306.0
2023-02-06T05:12:38.000Z,288.0
2023-02-06T05:13:38.000Z,311.0
2023-02-06T05:14:37.000Z,353.0
2023-02-06T05:15:38.000Z,323.0
2023-02-06T05:16:38.000Z,328.0
2023-02-06T05:17:38.000Z,362.0
2023-02-06T05:18:38.000Z,361.0
2023-02-06T05:19:37.000Z,297.0
2023-02-06T05:20:38.000Z,345.0
2023-02-06T05:21:38.000Z,330.0
2023-02-06T05:22:37.000Z,352.0
2023-02-06T05:23:38.000Z,354.0
2023-02-06T05:24:37.000Z,407.0
2023-02-06T05:25:38.000Z,319.0
2023-02-06T05:26:38.000Z,321.0
2023-02-06T05:27:37.000Z,319.0
2023-02-06T05:28:38.000Z,300.0
2023-02-06T05:29:38.000Z,310.0
2023-02-06T05:30:38.000Z,313.0
2023-02-06T05:31:38.000Z,400.0
2023-02-06T05:32:37.000Z,432.0
2023-02-06T05:33:38.000Z,401.0
2023-02-06T05:34:38.000Z,360.0
2023-02-06T05:35:37.000Z,322.0
2023-02-06T05:36:38.000Z,366.0
2023-02-06T05:37:37.000Z,428.0
2023-02-06T05:38:38.000Z,551.0
2023-02-06T05:39:38.000Z,376.0
2023-02-06T05:40:37.000Z,578.0
2023-02-06T05:41:38.000Z,579.0
2023-02-06T05:42:38.000Z,607.0
2023-02-06T05:43:38.000Z,409.0
2023-02-06T05:44:38.000Z,524.0
2023-02-06T05:45:37.000Z,330.0
2023-02-06T05:46:38.000Z,449.0
2023-02-06T05:47:38.000Z,380.0
2023-02-06T05:48:37.000Z,387.0
2023-02-06T05:49:38.000Z,327.0
2023-02-06T05:50:37.000Z,344.0
2023-02-06T05:51:38.000Z,327.0
2023-02-06T05:52:38.000Z,392.0
2023-02-06T05:53:37.000Z,405.0
2023-02-06T05:54:38.000Z,421.0
2023-02-06T05:55:38.000Z,409.0
2023-02-06T05:56:38.000Z,380.0
2023-02-06T05:57:38.000Z,325.0
2023-02-06T05:58:37.000Z,389.0
2023-02-06T05:59:38.000Z,356.0
2023-02-06T06:00:38.000Z,297.0
2023-02-06T06:01:37.000Z,326.0
2023-02-06T06:02:38.000Z,325.0
2023-02-06T06:03:38.000Z,331.0
2023-02-06T06:04:38.000Z,331.0
2023-02-06T06:05:38.000Z,359.0
2023-02-06T06:06:37.000Z,379.0
2023-02-06T06:07:38.000Z,412.0
2023-02-06T06:08:38.000Z,465.0
2023-02-06T06:09:38.000Z,533.0
2023-02-06T06:10:38.000Z,478.0
2023-02-06T06:11:38.000Z,512.0
2023-02-06T06:12:37.000Z,477.0
2023-02-06T06:13:38.000Z,386.0
2023-02-06T06:14:38.000Z,441.0
2023-02-06T06:15:38.000Z,491.0
2023-02-06T06:16:38.000Z,343.0
2023-02-06T06:17:37.000Z,288.0
2023-02-06T06:18:38.000Z,296.0
2023-02-06T06:19:38.000Z,281.0
2023-02-06T06:20:38.000Z,280.0
2023-02-06T06:21:38.000Z,330.0
2023-02-06T06:22:37.000Z,366.0
2023-02-06T06:23:38.000Z,387.0
2023-02-06T06:24:38.000Z,407.0
2023-02-06T06:25:37.000Z,382.0
2023-02-06T06:26:38.000Z,369.0
2023-02-06T06:27:37.000Z,309.0
2023-02-06T06:28:38.000Z,302.0
2023-02-06T06:29:38.000Z,319.0
2023-02-06T06:30:37.000Z,283.0
2023-02-06T06:31:38.000Z,246.0
2023-02-06T06:32:38.000Z,261.0
2023-02-06T06:33:38.000Z,248.0
2023-02-06T06:34:38.000Z,247.0
2023-02-06T06:35:37.000Z,296.0
2023-02-06T06:36:38.000Z,297.0
2023-02-06T06:37:38.000Z,323.0
2023-02-06T06:38:37.000Z,304.0
2023-02-06T06:39:38.000Z,315.0
2023-02-06T06:40:38.000Z,339.0
2023-02-06T06:41:38.000Z,334.0
2023-02-06T06:42:38.000Z,317.0
2023-02-06T06:43:37.000Z,338.0
2023-02-06T06:44:38.000Z,369.0
2023-02-06T06:45:38.000Z,330.0
2023-02-06T06:46:37.000Z,336.0
2023-02-06T06:47:38.000Z,357.0
2023-02-06T06:48:37.000Z,357.0
2023-02-06T06:49:38.000Z,357.0
2023-02-06T06:50:38.000Z,408.0
2023-02-06T06:51:37.000Z,408.0
2023-02-06T06:52:38.000Z,444.0
2023-02-06T06:53:38.000Z,382.0
2023-02-06T06:54:38.000Z,390.0
2023-02-06T06:55:38.000Z,466.0
2023-02-06T06:56:37.000Z,476.0
2023-02-06T06:57:38.000Z,393.0
2023-02-06T06:58:38.000Z,395.0
2023-02-06T06:59:37.000Z,471.0
2023-02-06T07:00:38.000Z,587.0
2023-02-06T07:01:37.000Z,458.0
2023-02-06T07:02:38.000Z,426.0
2023-02-06T07:03:38.000Z,384.0
2023-02-06T07:04:37.000Z,393.0
2023-02-06T07:05:38.000Z,464.0
2023-02-06T07:06:38.000Z,462.0
2023-02-06T07:07:38.000Z,415.0
2023-02-06T07:08:38.000Z,376.0
2023-02-06T07:09:37.000Z,455.0
2023-02-06T07:10:38.000Z,539.0
2023-02-06T07:11:38.000Z,573.0
2023-02-06T07:12:37.000Z,684.0
2023-02-06T07:13:38.000Z,784.0
2023-02-06T07:14:38.000Z,776.0
2023-02-06T07:15:37.000Z,821.0
2023-02-06T07:16:38.000Z,636.0
2023-02-06T07:17:38.000Z,629.0
2023-02-06T07:18:38.000Z,797.0
2023-02-06T07:19:38.000Z,870.0
2023-02-06T07:20:37.000Z,1005.0
2023-02-06T07:21:38.000Z,1061.0
2023-02-06T07:22:38.000Z,1074.0
2023-02-06T07:23:37.000Z,1190.0
2023-02-06T07:24:38.000Z,1276.0
2023-02-06T07:25:37.000Z,1343.0
2023-02-06T07:26:38.000Z,1438.0
2023-02-06T07:27:38.000Z,1478.0
2023-02-06T07:28:37.000Z,1609.0
2023-02-06T07:29:38.000Z,1584.0
2023-02-06T07:30:38.000Z,1835.0
2023-02-06T07:31:38.000Z,1479.0
2023-02-06T07:32:38.000Z,1281.0
2023-02-06T07:33:37.000Z,1297.0
2023-02-06T07:34:38.000Z,1376.0
2023-02-06T07:35:38.000Z,1309.0
2023-02-06T07:36:37.000Z,1352.0
2023-02-06T07:37:38.000Z,1441.0
2023-02-06T07:38:37.000Z,1439.0
2023-02-06T07:39:38.000Z,1437.0
2023-02-06T07:40:38.000Z,1185.0
2023-02-06T07:41:37.000Z,723.0
2023-02-06T07:42:38.000Z,582.0
2023-02-06T07:43:38.000Z,602.0
2023-02-06T07:44:38.000Z,658.0
2023-02-06T07:45:38.000Z,814.0
2023-02-06T07:46:37.000Z,699.0
2023-02-06T07:47:38.000Z,558.0
2023-02-06T07:48:38.000Z,475.0
2023-02-06T07:49:37.000Z,466.0
2023-02-06T07:50:38.000Z,468.0
2023-02-06T07:51:37.000Z,649.0
2023-02-06T07:52:38.000Z,578.0
2023-02-06T07:53:38.000Z,646.0
2023-02-06T07:54:37.000Z,778.0
2023-02-06T07:55:38.000Z,854.0
2023-02-06T07:56:38.000Z,853.0
2023-02-06T07:57:38.000Z,883.0
2023-02-06T07:58:38.000Z,771.0
2023-02-06T07:59:37.000Z,876.0
2023-02-06T08:00:38.000Z,969.0
2023-02-06T08:01:38.000Z,911.0
2023-02-06T08:02:37.000Z,708.0
2023-02-06T08:03:38.000Z,639.0
2023-02-06T08:04:38.000Z,689.0
2023-02-06T08:05:38.000Z,719.0
2023-02-06T08:06:38.000Z,723.0
2023-02-06T08:07:37.000Z,796.0
2023-02-06T08:08:38.000Z,776.0
2023-02-06T08:09:38.000Z,651.0
2023-02-06T08:10:37.000Z,741.0
2023-02-06T08:11:38.000Z,587.0
2023-02-06T08:12:38.000Z,644.0
2023-02-06T08:13:38.000Z,943.0
2023-02-06T08:14:38.000Z,1126.0
2023-02-06T08:15:37.000Z,1143.0
2023-02-06T08:16:38.000Z,884.0
2023-02-06T08:17:38.000Z,643.0
2023-02-06T08:18:37.000Z,511.0
2023-02-06T08:19:38.000Z,452.0
2023-02-06T08:20:38.000Z,470.0
2023-02-06T08:21:38.000Z,518.0
2023-02-06T08:22:38.000Z,496.0
2023-02-06T08:23:37.000Z,536.0
2023-02-06T08:24:38.000Z,633.0
2023-02-06T08:25:38.000Z,800.0
2023-02-06T08:26:37.000Z,909.0
2023-02-06T08:27:38.000Z,844.0
2023-02-06T08:28:37.000Z,674.0
2023-02-06T08:29:38.000Z,458.0
2023-02-06T08:30:38.000Z,444.0
2023-02-06T08:31:37.000Z,513.0
2023-02-06T08:32:38.000Z,943.0
2023-02-06T08:33:38.000Z,1097.0
2023-02-06T08:34:38.000Z,1033.0
2023-02-06T08:35:38.000Z,1103.0
2023-02-06T08:36:37.000Z,916.0
2023-02-06T08:37:38.000Z,992.0
2023-02-06T08:38:38.000Z,1188.0
2023-02-06T08:39:37.000Z,1195.0
2023-02-06T08:40:38.000Z,1346.0
2023-02-06T08:41:38.000Z,1170.0
2023-02-06T08:42:38.000Z,1377.0
2023-02-06T08:43:38.000Z,1302.0
2023-02-06T08:44:37.000Z,1555.0
2023-02-06T08:45:38.000Z,1556.0
2023-02-06T08:46:38.000Z,1774.0
2023-02-06T08:47:37.000Z,1538.0
2023-02-06T08:48:38.000Z,1547.0
2023-02-06T08:49:37.000Z,1666.0
2023-02-06T08:50:38.000Z,1374.0
2023-02-06T08:51:38.000Z,1267.0
2023-02-06T08:52:37.000Z,1495.0
2023-02-06T08:53:38.000Z,1794.0
2023-02-06T08:54:38.000Z,1747.0
2023-02-06T08:55:38.000Z,1832.0
2023-02-06T08:56:38.000Z,1663.0
2023-02-06T08:57:37.000Z,1742.0
2023-02-06T08:58:38.000Z,1797.0
2023-02-06T08:59:38.000Z,2100.0
2023-02-06T09:00:38.000Z,2572.0
2023-02-06T09:01:38.000Z,3029.0
2023-02-06T09:02:37.000Z,3349.0
2023-02-06T09:03:38.000Z,3683.0
2023-02-06T09:04:38.000Z,3587.0
2023-02-06T09:05:37.000Z,3435.0
2023-02-06T09:06:38.000Z,3184.0
2023-02-06T09:07:38.000Z,2856.0
2023-02-06T09:08:38.000Z,2985.0
2023-02-06T09:09:38.000Z,3104.0
2023-02-06T09:10:37.000Z,3017.0
2023-02-06T09:11:38.000Z,3142.0
2023-02-06T09:12:38.000Z,3053.0
2023-02-06T09:13:37.000Z,3209.0
2023-02-06T09:14:38.000Z,3586.0
2023-02-06T09:15:38.000Z,3905.0
2023-02-06T09:16:38.000Z,4056.0
2023-02-06T09:17:38.000Z,3920.0
2023-02-06T09:18:37.000Z,3625.0
2023-02-06T09:19:38.000Z,3396.0
2023-02-06T09:20:38.000Z,3213.0
2023-02-06T09:21:38.000Z,3017.0
2023-02-06T09:22:38.000Z,3041.0
2023-02-06T09:23:37.000Z,3100.0
2023-02-06T09:24:38.000Z,3242.0
2023-02-06T09:25:38.000Z,3230.0
2023-02-06T09:26:37.000Z,3200.0
2023-02-06T09:27:38.000Z,3239.0
2023-02-06T09:28:38.000Z,3240.0
2023-02-06T09:29:38.000Z,2902.0
2023-02-06T09:30:38.000Z,3011.0
2023-02-06T09:31:37.000Z,3397.0
2023-02-06T09:32:38.000Z,3526.0
2023-02-06T09:33:38.000Z,3902.0
2023-02-06T09:34:37.000Z,3749.0
2023-02-06T09:35:38.000Z,3996.0
2023-02-06T09:36:37.000Z,4148.0
2023-02-06T09:37:38.000Z,4798.0
2023-02-06T09:38:38.000Z,5002.0
2023-02-06T09:39:37.000Z,5086.0
2023-02-06T09:40:38.000Z,5029.0
2023-02-06T09:41:38.000Z,5024.0
2023-02-06T09:42:38.000Z,4610.0
2023-02-06T09:43:38.000Z,4748.0
2023-02-06T09:44:37.000Z,4659.0
2023-02-06T09:45:38.000Z,4774.0
2023-02-06T09:46:38.000Z,4714.0
2023-02-06T09:47:37.000Z,4875.0
2023-02-06T09:48:38.000Z,5050.0
2023-02-06T09:49:37.000Z,5244.0
2023-02-06T09:50:38.000Z,5141.0
2023-02-06T09:51:38.000Z,4798.0
2023-02-06T09:52:37.000Z,4616.0
2023-02-06T09:53:38.000Z,4523.0
2023-02-06T09:54:38.000Z,4265.0
2023-02-06T09:55:38.000Z,4093.0
2023-02-06T09:56:38.000Z,4053.0
2023-02-06T09:57:37.000Z,4095.0
2023-02-06T09:58:38.000Z,3911.0
2023-02-06T09:59:38.000Z,4042.0
2023-02-06T10:00:37.000Z,3930.0
2023-02-06T10:01:38.000Z,3831.0
2023-02-06T10:02:37.000Z,3852.0
2023-02-06T10:03:38.000Z,3821.0
2023-02-06T10:04:38.000Z,3937.0
2023-02-06T10:05:37.000Z,3903.0
2023-02-06T10:06:38.000Z,3951.0
2023-02-06T10:07:38.000Z,3893.0
2023-02-06T10:08:38.000Z,4079.0
2023-02-06T10:09:38.000Z,4206.0
2023-02-06T10:10:38.000Z,4179.0
2023-02-06T10:11:38.000Z,4330.0
2023-02-06T10:12:38.000Z,4056.0
2023-02-06T10:13:37.000Z,4367.0
2023-02-06T10:14:38.000Z,4485.0
2023-02-06T10:15:38.000Z,4412.0
2023-02-06T10:16:38.000Z,4368.0
2023-02-06T10:17:38.000Z,4502.0
2023-02-06T10:18:37.000Z,4566.0
2023-02-06T10:19:38.000Z,4583.0
2023-02-06T10:20:38.000Z,4255.0
2023-02-06T10:21:37.000Z,4166.0
2023-02-06T10:22:38.000Z,3746.0
2023-02-06T10:23:37.000Z,3554.0
2023-02-06T10:24:38.000Z,3608.0
2023-02-06T10:25:38.000Z,3640.0
2023-02-06T10:26:37.000Z,3404.0
2023-02-06T10:27:38.000Z,3347.0
2023-02-06T10:28:38.000Z,3434.0
2023-02-06T10:29:38.000Z,3227.0
2023-02-06T10:30:38.000Z,3102.0
2023-02-06T10:31:37.000Z,3158.0
2023-02-06T10:32:38.000Z,3264.0
2023-02-06T10:33:38.000Z,2953.0
2023-02-06T10:34:37.000Z,2865.0
2023-02-06T10:35:38.000Z,2839.0
2023-02-06T10:36:38.000Z,2841.0
2023-02-06T10:37:38.000Z,2782.0
2023-02-06T10:38:38.000Z,2740.0
2023-02-06T10:39:37.000Z,2448.0
2023-02-06T10:40:38.000Z,2365.0
2023-02-06T10:41:38.000Z,2228.0
2023-02-06T10:42:38.000Z,2422.0
2023-02-06T10:43:38.000Z,2634.0
2023-02-06T10:44:37.000Z,2502.0
2023-02-06T10:45:38.000Z,2254.0
2023-02-06T10:46:38.000Z,2405.0
2023-02-06T10:47:37.000Z,2208.0
2023-02-06T10:48:38.000Z,2195.0
2023-02-06T10:49:37.000Z,1900.0
2023-02-06T10:50:38.000Z,1826.0
2023-02-06T10:51:38.000Z,1894.0
2023-02-06T10:52:37.000Z,1867.0
2023-02-06T10:53:38.000Z,2121.0
2023-02-06T10:54:38.000Z,2168.0
2023-02-06T10:55:38.000Z,2154.0
2023-02-06T10:56:38.000Z,2182.0
2023-02-06T10:57:37.000Z,2301.0
2023-02-06T10:58:38.000Z,2139.0
2023-02-06T10:59:38.000Z,2316.0
2023-02-06T11:00:37.000Z,2334.0
2023-02-06T11:01:38.000Z,2473.0
2023-02-06T11:02:38.000Z,2313.0
2023-02-06T11:03:38.000Z,2238.0
2023-02-06T11:04:38.000Z,2061.0
2023-02-06T11:05:37.000Z,2046.0
2023-02-06T11:06:38.000Z,1885.0
2023-02-06T11:07:38.000Z,1642.0
2023-02-06T11:08:37.000Z,1724.0
2023-02-06T11:09:38.000Z,1773.0
2023-02-06T11:10:38.000Z,1969.0
2023-02-06T11:11:38.000Z,2108.0
2023-02-06T11:12:38.000Z,2267.0
2023-02-06T11:13:37.000Z,2333.0
2023-02-06T11:14:38.000Z,2307.0
2023-02-06T11:15:38.000Z,2227.0
2023-02-06T11:16:38.000Z,2168.0
2023-02-06T11:17:38.000Z,2012.0
2023-02-06T11:18:37.000Z,2093.0
2023-02-06T11:19:38.000Z,2260.0
2023-02-06T11:20:38.000Z,2302.0
2023-02-06T11:21:37.000Z,2353.0
2023-02-06T11:22:38.000Z,2203.0
2023-02-06T11:23:37.000Z,2129.0
2023-02-06T11:24:38.000Z,2096.0
2023-02-06T11:25:38.000Z,2086.0
2023-02-06T11:26:37.000Z,2137.0
2023-02-06T11:27:38.000Z,2321.0
2023-02-06T11:28:38.000Z,2572.0
2023-02-06T11:29:38.000Z,2594.0
2023-02-06T11:30:38.000Z,2455.0
2023-02-06T11:31:37.000Z,2379.0
2023-02-06T11:32:38.000Z,2335.0
2023-02-06T11:33:38.000Z,2243.0
2023-02-06T11:34:37.000Z,2311.0
2023-02-06T11:35:38.000Z,2417.0
2023-02-06T11:36:37.000Z,2460.0
2023-02-06T11:37:38.000Z,2350.0
2023-02-06T11:38:38.000Z,2208.0
2023-02-06T11:39:37.000Z,2115.0
2023-02-06T11:40:38.000Z,2336.0
2023-02-06T11:41:38.000Z,2481.0
2023-02-06T11:42:38.000Z,2509.0
2023-02-06T11:43:38.000Z,2492.0
2023-02-06T11:44:37.000Z,2541.0
2023-02-06T11:45:38.000Z,2486.0
2023-02-06T11:46:38.000Z,2603.0
2023-02-06T11:47:37.000Z,2796.0
2023-02-06T11:48:38.000Z,3074.0
2023-02-06T11:49:37.000Z,2981.0
2023-02-06T11:50:38.000Z,2928.0
2023-02-06T11:51:38.000Z,2992.0
2023-02-06T11:52:37.000Z,3002.0
2023-02-06T11:53:38.000Z,2925.0
2023-02-06T11:54:38.000Z,3030.0
2023-02-06T11:55:38.000Z,3011.0
2023-02-06T11:56:38.000Z,2957.0
2023-02-06T11:57:37.000Z,2991.0
2023-02-06T11:58:38.000Z,3073.0
2023-02-06T11:59:38.000Z,3010.0
2023-02-06T12:00:37.000Z,3029.0
2023-02-06T12:01:38.000Z,3015.0
2023-02-06T12:02:38.000Z,2896.0
2023-02-06T12:03:38.000Z,2760.0
2023-02-06T12:04:38.000Z,2747.0
2023-02-06T12:05:37.000Z,2799.0
2023-02-06T12:06:38.000Z,2681.0
2023-02-06T12:07:38.000Z,2596.0
2023-02-06T12:08:38.000Z,2656.0
2023-02-06T12:09:38.000Z,2908.0
2023-02-06T12:10:38.000Z,2886.0
2023-02-06T12:11:38.000Z,2895.0
2023-02-06T12:12:38.000Z,2946.0
2023-02-06T12:13:37.000Z,3052.0
2023-02-06T12:14:38.000Z,3175.0
2023-02-06T12:15:38.000Z,3260.0
2023-02-06T12:16:38.000Z,3408.0
2023-02-06T12:17:38.000Z,3457.0
2023-02-06T12:18:37.000Z,3454.0
2023-02-06T12:19:38.000Z,3526.0
2023-02-06T12:20:38.000Z,3546.0
2023-02-06T12:21:37.000Z,3663.0
2023-02-06T12:22:38.000Z,3445.0
2023-02-06T12:23:37.000Z,3575.0
2023-02-06T12:24:38.000Z,3559.0
2023-02-06T12:25:38.000Z,3677.0
2023-02-06T12:26:37.000Z,3603.0
2023-02-06T12:27:38.000Z,3627.0
2023-02-06T12:28:38.000Z,3700.0
2023-02-06T12:29:38.000Z,3930.0
2023-02-06T12:30:38.000Z,3770.0
2023-02-06T12:31:37.000Z,3748.0
2023-02-06T12:32:38.000Z,3714.0
2023-02-06T12:33:38.000Z,3845.0
2023-02-06T12:34:37.000Z,3863.0
2023-02-06T12:35:38.000Z,3633.0